sensor_id;sensor_type;location;lat;lon;timestamp;P1;durP1;ratioP1;P2;durP2;ratioP2
71046;SDS011;58703;48.978;8.982;2022-10-16T00:01:20;6.30;;;2.33;;
71046;SDS011;58703;48.978;8.982;2022-10-16T00:03:49;2.57;;;1.30;;
71046;SDS011;58703;48.978;8.982;2022-10-16T00:06:17;2.17;;;1.80;;
71046;SDS011;58703;48.978;8.982;2022-10-16T00:08:45;3.80;;;2.47;;
71046;SDS011;58703;48.978;8.982;2022-10-16T00:13:46;3.47;;;1.42;;
71046;SDS011;58703;48.978;8.982;2022-10-16T00:16:14;2.10;;;1.20;;
71046;SDS011;58703;48.978;8.982;2022-10-16T00:18:42;3.85;;;1.60;;
71046;SDS011;58703;48.978;8.982;2022-10-16T00:21:10;2.33;;;1.50;;
71046;SDS011;58703;48.978;8.982;2022-10-16T00:23:41;2.45;;;1.20;;
71046;SDS011;58703;48.978;8.982;2022-10-16T00:26:09;5.07;;;1.33;;
71046;SDS011;58703;48.978;8.982;2022-10-16T00:28:38;6.33;;;1.30;;
71046;SDS011;58703;48.978;8.982;2022-10-16T00:31:11;5.13;;;1.23;;
71046;SDS011;58703;48.978;8.982;2022-10-16T00:33:38;5.10;;;1.65;;
71046;SDS011;58703;48.978;8.982;2022-10-16T00:36:06;3.80;;;1.45;;
71046;SDS011;58703;48.978;8.982;2022-10-16T00:38:35;1.77;;;1.45;;
71046;SDS011;58703;48.978;8.982;2022-10-16T00:41:05;3.53;;;1.57;;
71046;SDS011;58703;48.978;8.982;2022-10-16T00:43:51;2.90;;;1.30;;
71046;SDS011;58703;48.978;8.982;2022-10-16T00:46:21;3.53;;;1.10;;
71046;SDS011;58703;48.978;8.982;2022-10-16T00:49:13;3.63;;;1.30;;
71046;SDS011;58703;48.978;8.982;2022-10-16T00:51:43;3.95;;;1.70;;
71046;SDS011;58703;48.978;8.982;2022-10-16T00:54:12;2.67;;;1.40;;
71046;SDS011;58703;48.978;8.982;2022-10-16T00:56:42;1.48;;;1.02;;
71046;SDS011;58703;48.978;8.982;2022-10-16T00:59:15;4.55;;;1.20;;
71046;SDS011;58703;48.978;8.982;2022-10-16T01:01:44;3.97;;;1.02;;
71046;SDS011;58703;48.978;8.982;2022-10-16T01:04:11;2.60;;;1.23;;
71046;SDS011;58703;48.978;8.982;2022-10-16T01:06:47;11.67;;;3.03;;
71046;SDS011;58703;48.978;8.982;2022-10-16T01:12:45;4.47;;;2.15;;
71046;SDS011;58703;48.978;8.982;2022-10-16T01:21:05;2.50;;;1.67;;
71046;SDS011;58703;48.978;8.982;2022-10-16T01:31:44;4.38;;;1.50;;
71046;SDS011;58703;48.978;8.982;2022-10-16T01:34:17;3.63;;;1.20;;
71046;SDS011;58703;48.978;8.982;2022-10-16T01:36:55;2.30;;;1.20;;
71046;SDS011;58703;48.978;8.982;2022-10-16T01:39:28;3.08;;;1.10;;
71046;SDS011;58703;48.978;8.982;2022-10-16T01:42:06;3.25;;;1.13;;
71046;SDS011;58703;48.978;8.982;2022-10-16T01:44:38;3.75;;;1.27;;
71046;SDS011;58703;48.978;8.982;2022-10-16T01:47:07;3.00;;;1.13;;
71046;SDS011;58703;48.978;8.982;2022-10-16T01:49:37;5.15;;;1.55;;
71046;SDS011;58703;48.978;8.982;2022-10-16T01:52:08;2.38;;;1.30;;
71046;SDS011;58703;48.978;8.982;2022-10-16T01:54:41;6.38;;;1.00;;
71046;SDS011;58703;48.978;8.982;2022-10-16T01:57:10;3.88;;;1.25;;
71046;SDS011;58703;48.978;8.982;2022-10-16T01:59:40;4.57;;;1.17;;
71046;SDS011;58703;48.978;8.982;2022-10-16T02:02:10;5.90;;;1.30;;
71046;SDS011;58703;48.978;8.982;2022-10-16T02:04:39;1.75;;;1.00;;
71046;SDS011;58703;48.978;8.982;2022-10-16T02:07:10;0.80;;;0.80;;
71046;SDS011;58703;48.978;8.982;2022-10-16T02:09:37;3.03;;;1.00;;
71046;SDS011;58703;48.978;8.982;2022-10-16T02:12:07;4.37;;;1.50;;
71046;SDS011;58703;48.978;8.982;2022-10-16T02:14:38;2.13;;;1.20;;
71046;SDS011;58703;48.978;8.982;2022-10-16T02:17:16;1.67;;;1.10;;
71046;SDS011;58703;48.978;8.982;2022-10-16T02:19:44;4.40;;;1.17;;
71046;SDS011;58703;48.978;8.982;2022-10-16T02:22:35;5.03;;;1.30;;
71046;SDS011;58703;48.978;8.982;2022-10-16T02:25:25;1.57;;;1.10;;
71046;SDS011;58703;48.978;8.982;2022-10-16T02:28:01;5.30;;;1.17;;
71046;SDS011;58703;48.978;8.982;2022-10-16T02:30:52;2.05;;;1.02;;
71046;SDS011;58703;48.978;8.982;2022-10-16T02:33:36;2.35;;;0.85;;
71046;SDS011;58703;48.978;8.982;2022-10-16T02:36:05;1.17;;;0.98;;
71046;SDS011;58703;48.978;8.982;2022-10-16T02:38:34;1.40;;;1.10;;
71046;SDS011;58703;48.978;8.982;2022-10-16T02:41:01;3.53;;;1.15;;
71046;SDS011;58703;48.978;8.982;2022-10-16T02:43:29;5.10;;;1.27;;
71046;SDS011;58703;48.978;8.982;2022-10-16T02:45:56;2.35;;;0.80;;
71046;SDS011;58703;48.978;8.982;2022-10-16T02:48:23;3.42;;;1.38;;
71046;SDS011;58703;48.978;8.982;2022-10-16T02:50:50;2.60;;;0.80;;
71046;SDS011;58703;48.978;8.982;2022-10-16T02:53:17;2.25;;;1.15;;
71046;SDS011;58703;48.978;8.982;2022-10-16T02:55:44;2.35;;;1.00;;
71046;SDS011;58703;48.978;8.982;2022-10-16T02:58:11;2.28;;;1.13;;
71046;SDS011;58703;48.978;8.982;2022-10-16T03:00:38;2.72;;;1.20;;
71046;SDS011;58703;48.978;8.982;2022-10-16T03:03:05;4.13;;;1.10;;
71046;SDS011;58703;48.978;8.982;2022-10-16T03:05:32;1.40;;;1.25;;
71046;SDS011;58703;48.978;8.982;2022-10-16T03:07:59;1.50;;;1.00;;
71046;SDS011;58703;48.978;8.982;2022-10-16T03:10:26;2.63;;;1.00;;
71046;SDS011;58703;48.978;8.982;2022-10-16T03:12:52;2.45;;;1.00;;
71046;SDS011;58703;48.978;8.982;2022-10-16T03:15:19;2.17;;;1.07;;
71046;SDS011;58703;48.978;8.982;2022-10-16T03:17:47;1.58;;;1.00;;
71046;SDS011;58703;48.978;8.982;2022-10-16T03:20:14;3.72;;;1.23;;
71046;SDS011;58703;48.978;8.982;2022-10-16T03:22:41;3.93;;;1.67;;
71046;SDS011;58703;48.978;8.982;2022-10-16T03:25:08;4.05;;;1.55;;
71046;SDS011;58703;48.978;8.982;2022-10-16T03:27:34;5.28;;;2.22;;
71046;SDS011;58703;48.978;8.982;2022-10-16T03:30:01;7.07;;;2.47;;
71046;SDS011;58703;48.978;8.982;2022-10-16T03:32:28;2.20;;;1.60;;
71046;SDS011;58703;48.978;8.982;2022-10-16T03:34:55;2.73;;;1.47;;
71046;SDS011;58703;48.978;8.982;2022-10-16T03:37:23;7.75;;;1.77;;
71046;SDS011;58703;48.978;8.982;2022-10-16T03:39:50;7.00;;;1.40;;
71046;SDS011;58703;48.978;8.982;2022-10-16T03:42:18;3.90;;;1.40;;
71046;SDS011;58703;48.978;8.982;2022-10-16T03:44:45;1.58;;;0.90;;
71046;SDS011;58703;48.978;8.982;2022-10-16T03:47:11;2.03;;;1.30;;
71046;SDS011;58703;48.978;8.982;2022-10-16T03:49:38;1.55;;;1.08;;
71046;SDS011;58703;48.978;8.982;2022-10-16T03:52:04;1.33;;;1.23;;
71046;SDS011;58703;48.978;8.982;2022-10-16T03:54:31;1.23;;;1.13;;
71046;SDS011;58703;48.978;8.982;2022-10-16T03:56:58;2.40;;;1.58;;
71046;SDS011;58703;48.978;8.982;2022-10-16T03:59:23;4.13;;;1.70;;
71046;SDS011;58703;48.978;8.982;2022-10-16T04:01:50;1.67;;;1.13;;
71046;SDS011;58703;48.978;8.982;2022-10-16T04:04:17;3.88;;;1.27;;
71046;SDS011;58703;48.978;8.982;2022-10-16T04:06:44;3.03;;;1.20;;
71046;SDS011;58703;48.978;8.982;2022-10-16T04:09:11;2.25;;;1.20;;
71046;SDS011;58703;48.978;8.982;2022-10-16T04:11:38;2.53;;;0.98;;
71046;SDS011;58703;48.978;8.982;2022-10-16T04:14:05;3.90;;;1.30;;
71046;SDS011;58703;48.978;8.982;2022-10-16T04:16:32;2.10;;;1.38;;
71046;SDS011;58703;48.978;8.982;2022-10-16T04:18:58;5.70;;;1.27;;
71046;SDS011;58703;48.978;8.982;2022-10-16T04:21:25;2.25;;;1.33;;
71046;SDS011;58703;48.978;8.982;2022-10-16T04:23:52;2.25;;;1.40;;
71046;SDS011;58703;48.978;8.982;2022-10-16T04:26:19;1.20;;;1.10;;
71046;SDS011;58703;48.978;8.982;2022-10-16T04:28:45;3.25;;;1.00;;
71046;SDS011;58703;48.978;8.982;2022-10-16T04:31:12;2.50;;;1.20;;
71046;SDS011;58703;48.978;8.982;2022-10-16T04:33:41;4.68;;;1.63;;
71046;SDS011;58703;48.978;8.982;2022-10-16T04:36:09;2.67;;;1.55;;
71046;SDS011;58703;48.978;8.982;2022-10-16T04:38:36;3.05;;;1.70;;
71046;SDS011;58703;48.978;8.982;2022-10-16T04:41:04;2.80;;;2.08;;
71046;SDS011;58703;48.978;8.982;2022-10-16T04:43:31;3.83;;;1.73;;
71046;SDS011;58703;48.978;8.982;2022-10-16T04:45:58;5.43;;;1.90;;
71046;SDS011;58703;48.978;8.982;2022-10-16T04:48:25;3.05;;;1.80;;
71046;SDS011;58703;48.978;8.982;2022-10-16T04:50:52;3.33;;;1.40;;
71046;SDS011;58703;48.978;8.982;2022-10-16T04:53:19;3.65;;;2.70;;
71046;SDS011;58703;48.978;8.982;2022-10-16T04:55:47;5.53;;;1.60;;
71046;SDS011;58703;48.978;8.982;2022-10-16T04:58:14;3.80;;;1.27;;
71046;SDS011;58703;48.978;8.982;2022-10-16T05:00:41;1.98;;;1.20;;
71046;SDS011;58703;48.978;8.982;2022-10-16T05:03:08;4.47;;;1.40;;
71046;SDS011;58703;48.978;8.982;2022-10-16T05:05:35;4.88;;;1.20;;
71046;SDS011;58703;48.978;8.982;2022-10-16T05:08:02;3.67;;;1.07;;
71046;SDS011;58703;48.978;8.982;2022-10-16T05:10:29;2.25;;;1.00;;
71046;SDS011;58703;48.978;8.982;2022-10-16T05:12:56;3.97;;;1.35;;
71046;SDS011;58703;48.978;8.982;2022-10-16T05:15:23;4.30;;;1.15;;
71046;SDS011;58703;48.978;8.982;2022-10-16T05:17:52;2.08;;;0.98;;
71046;SDS011;58703;48.978;8.982;2022-10-16T05:20:20;6.40;;;1.13;;
71046;SDS011;58703;48.978;8.982;2022-10-16T05:22:48;2.45;;;1.00;;
71046;SDS011;58703;48.978;8.982;2022-10-16T05:25:15;3.35;;;0.95;;
71046;SDS011;58703;48.978;8.982;2022-10-16T05:27:42;2.75;;;1.15;;
71046;SDS011;58703;48.978;8.982;2022-10-16T05:30:09;5.13;;;1.40;;
71046;SDS011;58703;48.978;8.982;2022-10-16T05:32:36;1.93;;;1.40;;
71046;SDS011;58703;48.978;8.982;2022-10-16T05:35:03;1.15;;;1.08;;
71046;SDS011;58703;48.978;8.982;2022-10-16T05:37:30;6.35;;;1.20;;
71046;SDS011;58703;48.978;8.982;2022-10-16T05:39:57;3.55;;;1.80;;
71046;SDS011;58703;48.978;8.982;2022-10-16T05:42:24;4.53;;;2.00;;
71046;SDS011;58703;48.978;8.982;2022-10-16T05:44:50;3.47;;;1.37;;
71046;SDS011;58703;48.978;8.982;2022-10-16T05:47:17;4.63;;;1.65;;
71046;SDS011;58703;48.978;8.982;2022-10-16T05:49:44;3.50;;;1.30;;
71046;SDS011;58703;48.978;8.982;2022-10-16T05:52:11;2.03;;;1.73;;
71046;SDS011;58703;48.978;8.982;2022-10-16T05:54:38;1.92;;;1.60;;
71046;SDS011;58703;48.978;8.982;2022-10-16T05:57:05;6.50;;;3.00;;
71046;SDS011;58703;48.978;8.982;2022-10-16T05:59:32;6.45;;;2.83;;
71046;SDS011;58703;48.978;8.982;2022-10-16T06:01:59;4.18;;;1.80;;
71046;SDS011;58703;48.978;8.982;2022-10-16T06:04:26;3.33;;;1.77;;
71046;SDS011;58703;48.978;8.982;2022-10-16T06:06:52;3.35;;;1.15;;
71046;SDS011;58703;48.978;8.982;2022-10-16T06:09:19;3.17;;;1.33;;
71046;SDS011;58703;48.978;8.982;2022-10-16T06:11:46;2.97;;;1.60;;
71046;SDS011;58703;48.978;8.982;2022-10-16T06:14:12;6.18;;;2.00;;
71046;SDS011;58703;48.978;8.982;2022-10-16T06:16:39;3.67;;;1.75;;
71046;SDS011;58703;48.978;8.982;2022-10-16T06:19:05;2.85;;;2.08;;
71046;SDS011;58703;48.978;8.982;2022-10-16T06:21:34;4.87;;;3.10;;
71046;SDS011;58703;48.978;8.982;2022-10-16T06:24:01;7.07;;;3.78;;
71046;SDS011;58703;48.978;8.982;2022-10-16T06:26:28;7.18;;;4.30;;
71046;SDS011;58703;48.978;8.982;2022-10-16T06:28:55;12.32;;;5.40;;
71046;SDS011;58703;48.978;8.982;2022-10-16T06:31:22;6.72;;;3.50;;
71046;SDS011;58703;48.978;8.982;2022-10-16T06:33:51;8.27;;;2.97;;
71046;SDS011;58703;48.978;8.982;2022-10-16T06:36:16;2.47;;;2.28;;
71046;SDS011;58703;48.978;8.982;2022-10-16T06:38:43;4.63;;;2.17;;
71046;SDS011;58703;48.978;8.982;2022-10-16T06:41:11;5.75;;;2.50;;
71046;SDS011;58703;48.978;8.982;2022-10-16T06:43:37;4.43;;;2.10;;
71046;SDS011;58703;48.978;8.982;2022-10-16T06:46:04;5.00;;;2.37;;
71046;SDS011;58703;48.978;8.982;2022-10-16T06:48:32;3.78;;;3.17;;
71046;SDS011;58703;48.978;8.982;2022-10-16T06:51:02;8.50;;;3.10;;
71046;SDS011;58703;48.978;8.982;2022-10-16T06:53:29;5.20;;;3.30;;
71046;SDS011;58703;48.978;8.982;2022-10-16T06:55:57;4.72;;;2.35;;
71046;SDS011;58703;48.978;8.982;2022-10-16T06:58:23;6.18;;;2.20;;
71046;SDS011;58703;48.978;8.982;2022-10-16T07:00:49;7.17;;;3.33;;
71046;SDS011;58703;48.978;8.982;2022-10-16T07:03:21;4.78;;;2.53;;
71046;SDS011;58703;48.978;8.982;2022-10-16T07:05:46;6.30;;;2.30;;
71046;SDS011;58703;48.978;8.982;2022-10-16T07:08:14;4.72;;;2.75;;
71046;SDS011;58703;48.978;8.982;2022-10-16T07:10:41;3.33;;;2.35;;
71046;SDS011;58703;48.978;8.982;2022-10-16T07:13:08;4.60;;;2.58;;
71046;SDS011;58703;48.978;8.982;2022-10-16T07:15:34;7.73;;;2.47;;
71046;SDS011;58703;48.978;8.982;2022-10-16T07:18:00;3.70;;;2.30;;
71046;SDS011;58703;48.978;8.982;2022-10-16T07:20:27;7.10;;;2.50;;
71046;SDS011;58703;48.978;8.982;2022-10-16T07:22:54;5.80;;;2.70;;
71046;SDS011;58703;48.978;8.982;2022-10-16T07:25:21;6.43;;;3.35;;
71046;SDS011;58703;48.978;8.982;2022-10-16T07:27:48;9.38;;;4.05;;
71046;SDS011;58703;48.978;8.982;2022-10-16T07:30:13;6.85;;;3.45;;
71046;SDS011;58703;48.978;8.982;2022-10-16T07:32:40;4.63;;;3.70;;
71046;SDS011;58703;48.978;8.982;2022-10-16T07:35:07;3.38;;;3.05;;
71046;SDS011;58703;48.978;8.982;2022-10-16T07:37:34;3.92;;;2.53;;
71046;SDS011;58703;48.978;8.982;2022-10-16T07:40:01;6.22;;;2.40;;
71046;SDS011;58703;48.978;8.982;2022-10-16T07:42:26;4.87;;;3.00;;
71046;SDS011;58703;48.978;8.982;2022-10-16T07:44:52;8.48;;;4.00;;
71046;SDS011;58703;48.978;8.982;2022-10-16T07:47:19;9.30;;;4.47;;
71046;SDS011;58703;48.978;8.982;2022-10-16T07:49:47;23.10;;;8.75;;
71046;SDS011;58703;48.978;8.982;2022-10-16T07:52:14;5.95;;;2.88;;
71046;SDS011;58703;48.978;8.982;2022-10-16T07:54:40;5.20;;;2.70;;
71046;SDS011;58703;48.978;8.982;2022-10-16T07:57:07;3.13;;;2.22;;
71046;SDS011;58703;48.978;8.982;2022-10-16T07:59:32;3.10;;;1.70;;
71046;SDS011;58703;48.978;8.982;2022-10-16T08:01:59;6.20;;;1.60;;
71046;SDS011;58703;48.978;8.982;2022-10-16T08:04:26;4.60;;;2.27;;
71046;SDS011;58703;48.978;8.982;2022-10-16T08:06:54;3.83;;;1.50;;
71046;SDS011;58703;48.978;8.982;2022-10-16T08:09:20;4.25;;;1.73;;
71046;SDS011;58703;48.978;8.982;2022-10-16T08:11:46;7.03;;;4.20;;
71046;SDS011;58703;48.978;8.982;2022-10-16T08:14:13;4.47;;;3.30;;
71046;SDS011;58703;48.978;8.982;2022-10-16T08:16:40;5.93;;;3.78;;
71046;SDS011;58703;48.978;8.982;2022-10-16T08:19:07;6.05;;;1.75;;
71046;SDS011;58703;48.978;8.982;2022-10-16T08:21:33;5.25;;;1.60;;
71046;SDS011;58703;48.978;8.982;2022-10-16T08:24:00;2.70;;;1.10;;
71046;SDS011;58703;48.978;8.982;2022-10-16T08:26:27;2.03;;;1.25;;
71046;SDS011;58703;48.978;8.982;2022-10-16T08:28:54;3.67;;;1.10;;
71046;SDS011;58703;48.978;8.982;2022-10-16T08:31:21;2.97;;;0.98;;
71046;SDS011;58703;48.978;8.982;2022-10-16T08:33:49;4.53;;;1.00;;
71046;SDS011;58703;48.978;8.982;2022-10-16T08:36:16;2.17;;;1.40;;
71046;SDS011;58703;48.978;8.982;2022-10-16T08:38:43;2.67;;;1.40;;
71046;SDS011;58703;48.978;8.982;2022-10-16T08:47:22;3.10;;;1.77;;
71046;SDS011;58703;48.978;8.982;2022-10-16T08:49:59;4.03;;;1.70;;
71046;SDS011;58703;48.978;8.982;2022-10-16T08:52:29;2.55;;;1.90;;
71046;SDS011;58703;48.978;8.982;2022-10-16T08:55:00;5.35;;;1.90;;
71046;SDS011;58703;48.978;8.982;2022-10-16T08:57:28;1.85;;;1.40;;
71046;SDS011;58703;48.978;8.982;2022-10-16T08:59:59;5.38;;;1.80;;
71046;SDS011;58703;48.978;8.982;2022-10-16T09:02:37;5.17;;;1.47;;
71046;SDS011;58703;48.978;8.982;2022-10-16T09:05:21;2.65;;;1.50;;
71046;SDS011;58703;48.978;8.982;2022-10-16T09:08:03;3.05;;;1.25;;
71046;SDS011;58703;48.978;8.982;2022-10-16T09:10:56;5.20;;;1.25;;
71046;SDS011;58703;48.978;8.982;2022-10-16T09:13:52;4.13;;;1.55;;
71046;SDS011;58703;48.978;8.982;2022-10-16T09:16:44;4.50;;;1.37;;
71046;SDS011;58703;48.978;8.982;2022-10-16T09:19:13;2.20;;;1.33;;
71046;SDS011;58703;48.978;8.982;2022-10-16T09:21:57;3.28;;;1.50;;
71046;SDS011;58703;48.978;8.982;2022-10-16T09:24:27;1.88;;;1.10;;
71046;SDS011;58703;48.978;8.982;2022-10-16T09:26:52;3.53;;;2.00;;
71046;SDS011;58703;48.978;8.982;2022-10-16T09:29:19;5.10;;;2.17;;
71046;SDS011;58703;48.978;8.982;2022-10-16T09:31:47;2.30;;;1.30;;
71046;SDS011;58703;48.978;8.982;2022-10-16T09:36:58;4.57;;;1.40;;
71046;SDS011;58703;48.978;8.982;2022-10-16T09:39:26;1.85;;;1.40;;
71046;SDS011;58703;48.978;8.982;2022-10-16T09:41:52;4.55;;;1.55;;
71046;SDS011;58703;48.978;8.982;2022-10-16T09:44:25;3.10;;;1.17;;
71046;SDS011;58703;48.978;8.982;2022-10-16T09:47:01;1.92;;;1.00;;
71046;SDS011;58703;48.978;8.982;2022-10-16T09:49:30;4.63;;;1.48;;
71046;SDS011;58703;48.978;8.982;2022-10-16T09:52:09;2.75;;;1.13;;
71046;SDS011;58703;48.978;8.982;2022-10-16T09:54:37;0.88;;;0.88;;
71046;SDS011;58703;48.978;8.982;2022-10-16T09:57:14;4.37;;;1.13;;
71046;SDS011;58703;48.978;8.982;2022-10-16T09:59:50;3.25;;;1.05;;
71046;SDS011;58703;48.978;8.982;2022-10-16T10:02:23;3.00;;;1.20;;
71046;SDS011;58703;48.978;8.982;2022-10-16T10:04:55;2.00;;;1.25;;
71046;SDS011;58703;48.978;8.982;2022-10-16T10:07:32;1.53;;;1.10;;
71046;SDS011;58703;48.978;8.982;2022-10-16T10:10:03;5.22;;;1.38;;
71046;SDS011;58703;48.978;8.982;2022-10-16T10:12:31;2.30;;;1.02;;
71046;SDS011;58703;48.978;8.982;2022-10-16T10:15:12;3.67;;;0.90;;
71046;SDS011;58703;48.978;8.982;2022-10-16T10:17:49;2.83;;;1.00;;
71046;SDS011;58703;48.978;8.982;2022-10-16T10:20:27;8.77;;;1.20;;
71046;SDS011;58703;48.978;8.982;2022-10-16T10:22:57;1.88;;;0.80;;
71046;SDS011;58703;48.978;8.982;2022-10-16T10:28:05;3.33;;;1.17;;
71046;SDS011;58703;48.978;8.982;2022-10-16T10:41:36;1.13;;;0.93;;
71046;SDS011;58703;48.978;8.982;2022-10-16T10:44:16;1.58;;;0.70;;
71046;SDS011;58703;48.978;8.982;2022-10-16T10:46:56;2.13;;;0.80;;
71046;SDS011;58703;48.978;8.982;2022-10-16T11:00:28;1.48;;;0.88;;
71046;SDS011;58703;48.978;8.982;2022-10-16T11:11:38;2.35;;;0.85;;
71046;SDS011;58703;48.978;8.982;2022-10-16T11:14:14;3.30;;;1.25;;
71046;SDS011;58703;48.978;8.982;2022-10-16T11:19:46;3.90;;;1.10;;
71046;SDS011;58703;48.978;8.982;2022-10-16T11:27:16;0.90;;;0.90;;
71046;SDS011;58703;48.978;8.982;2022-10-16T11:29:58;1.77;;;1.00;;
71046;SDS011;58703;48.978;8.982;2022-10-16T11:32:38;3.65;;;1.20;;
71046;SDS011;58703;48.978;8.982;2022-10-16T11:35:47;4.40;;;1.17;;
71046;SDS011;58703;48.978;8.982;2022-10-16T11:38:32;2.42;;;0.60;;
71046;SDS011;58703;48.978;8.982;2022-10-16T11:41:33;1.35;;;1.25;;
71046;SDS011;58703;48.978;8.982;2022-10-16T11:46:47;0.88;;;0.68;;
71046;SDS011;58703;48.978;8.982;2022-10-16T11:49:34;1.88;;;1.00;;
71046;SDS011;58703;48.978;8.982;2022-10-16T11:52:06;0.75;;;0.68;;
71046;SDS011;58703;48.978;8.982;2022-10-16T11:54:42;1.27;;;0.70;;
71046;SDS011;58703;48.978;8.982;2022-10-16T11:57:19;2.00;;;1.03;;
71046;SDS011;58703;48.978;8.982;2022-10-16T11:59:52;2.28;;;1.40;;
71046;SDS011;58703;48.978;8.982;2022-10-16T12:10:34;3.03;;;0.50;;
71046;SDS011;58703;48.978;8.982;2022-10-16T12:18:40;1.55;;;0.80;;
71046;SDS011;58703;48.978;8.982;2022-10-16T12:21:08;2.60;;;1.10;;
71046;SDS011;58703;48.978;8.982;2022-10-16T12:23:39;0.90;;;0.90;;
71046;SDS011;58703;48.978;8.982;2022-10-16T12:26:13;2.67;;;0.90;;
71046;SDS011;58703;48.978;8.982;2022-10-16T12:28:39;4.65;;;0.80;;
71046;SDS011;58703;48.978;8.982;2022-10-16T12:31:06;0.68;;;0.68;;
71046;SDS011;58703;48.978;8.982;2022-10-16T12:33:36;0.60;;;0.60;;
71046;SDS011;58703;48.978;8.982;2022-10-16T12:36:07;2.50;;;0.90;;
71046;SDS011;58703;48.978;8.982;2022-10-16T12:38:46;1.42;;;0.98;;
71046;SDS011;58703;48.978;8.982;2022-10-16T12:41:24;1.40;;;0.85;;
71046;SDS011;58703;48.978;8.982;2022-10-16T12:43:52;2.47;;;0.70;;
71046;SDS011;58703;48.978;8.982;2022-10-16T12:48:44;1.53;;;0.90;;
71046;SDS011;58703;48.978;8.982;2022-10-16T12:54:37;2.83;;;0.77;;
71046;SDS011;58703;48.978;8.982;2022-10-16T12:59:28;2.67;;;0.80;;
71046;SDS011;58703;48.978;8.982;2022-10-16T13:04:50;1.90;;;0.80;;
71046;SDS011;58703;48.978;8.982;2022-10-16T13:10:12;2.93;;;0.70;;
71046;SDS011;58703;48.978;8.982;2022-10-16T13:15:13;2.28;;;1.13;;
71046;SDS011;58703;48.978;8.982;2022-10-16T13:18:10;1.00;;;1.00;;
71046;SDS011;58703;48.978;8.982;2022-10-16T13:28:38;3.30;;;1.40;;
71046;SDS011;58703;48.978;8.982;2022-10-16T13:31:09;3.72;;;0.88;;
71046;SDS011;58703;48.978;8.982;2022-10-16T13:33:51;2.17;;;1.02;;
71046;SDS011;58703;48.978;8.982;2022-10-16T13:36:26;1.73;;;0.90;;
71046;SDS011;58703;48.978;8.982;2022-10-16T13:39:11;1.42;;;1.00;;
71046;SDS011;58703;48.978;8.982;2022-10-16T13:41:46;2.30;;;0.95;;
71046;SDS011;58703;48.978;8.982;2022-10-16T13:44:26;0.93;;;0.88;;
71046;SDS011;58703;48.978;8.982;2022-10-16T13:46:58;3.57;;;1.53;;
71046;SDS011;58703;48.978;8.982;2022-10-16T13:49:27;1.15;;;1.05;;
71046;SDS011;58703;48.978;8.982;2022-10-16T13:51:53;1.30;;;1.20;;
71046;SDS011;58703;48.978;8.982;2022-10-16T13:54:21;3.10;;;0.85;;
71046;SDS011;58703;48.978;8.982;2022-10-16T13:56:46;3.28;;;1.00;;
71046;SDS011;58703;48.978;8.982;2022-10-16T13:59:26;1.67;;;0.87;;
71046;SDS011;58703;48.978;8.982;2022-10-16T14:01:57;1.60;;;0.80;;
71046;SDS011;58703;48.978;8.982;2022-10-16T14:04:24;2.92;;;0.80;;
71046;SDS011;58703;48.978;8.982;2022-10-16T14:06:55;2.73;;;0.60;;
71046;SDS011;58703;48.978;8.982;2022-10-16T14:09:30;1.00;;;0.82;;
71046;SDS011;58703;48.978;8.982;2022-10-16T14:11:58;2.63;;;1.27;;
71046;SDS011;58703;48.978;8.982;2022-10-16T14:14:34;2.93;;;0.80;;
71046;SDS011;58703;48.978;8.982;2022-10-16T14:17:05;2.05;;;1.20;;
71046;SDS011;58703;48.978;8.982;2022-10-16T14:19:31;5.40;;;1.00;;
71046;SDS011;58703;48.978;8.982;2022-10-16T14:21:57;0.90;;;0.90;;
71046;SDS011;58703;48.978;8.982;2022-10-16T14:24:26;0.80;;;0.80;;
71046;SDS011;58703;48.978;8.982;2022-10-16T14:26:56;1.60;;;1.10;;
71046;SDS011;58703;48.978;8.982;2022-10-16T14:29:23;4.53;;;1.33;;
71046;SDS011;58703;48.978;8.982;2022-10-16T14:31:54;3.40;;;1.02;;
71046;SDS011;58703;48.978;8.982;2022-10-16T14:34:31;2.10;;;0.90;;
71046;SDS011;58703;48.978;8.982;2022-10-16T14:37:00;4.05;;;1.10;;
71046;SDS011;58703;48.978;8.982;2022-10-16T14:39:32;8.10;;;0.82;;
71046;SDS011;58703;48.978;8.982;2022-10-16T14:41:58;2.42;;;0.80;;
71046;SDS011;58703;48.978;8.982;2022-10-16T14:44:27;1.70;;;1.20;;
71046;SDS011;58703;48.978;8.982;2022-10-16T14:47:08;2.40;;;1.50;;
71046;SDS011;58703;48.978;8.982;2022-10-16T14:49:35;2.13;;;1.52;;
71046;SDS011;58703;48.978;8.982;2022-10-16T14:52:01;2.77;;;1.80;;
71046;SDS011;58703;48.978;8.982;2022-10-16T14:54:27;4.47;;;1.70;;
71046;SDS011;58703;48.978;8.982;2022-10-16T14:56:56;5.22;;;1.60;;
71046;SDS011;58703;48.978;8.982;2022-10-16T15:02:14;1.60;;;1.50;;
71046;SDS011;58703;48.978;8.982;2022-10-16T15:04:48;1.90;;;1.23;;
71046;SDS011;58703;48.978;8.982;2022-10-16T15:07:14;3.80;;;1.48;;
71046;SDS011;58703;48.978;8.982;2022-10-16T15:09:39;2.13;;;1.83;;
71046;SDS011;58703;48.978;8.982;2022-10-16T15:12:05;4.18;;;0.85;;
71046;SDS011;58703;48.978;8.982;2022-10-16T15:14:30;5.23;;;1.07;;
71046;SDS011;58703;48.978;8.982;2022-10-16T15:16:56;4.63;;;1.37;;
71046;SDS011;58703;48.978;8.982;2022-10-16T15:19:22;1.00;;;0.73;;
71046;SDS011;58703;48.978;8.982;2022-10-16T15:21:47;2.20;;;1.10;;
71046;SDS011;58703;48.978;8.982;2022-10-16T15:24:14;4.10;;;1.42;;
71046;SDS011;58703;48.978;8.982;2022-10-16T15:26:40;4.45;;;0.98;;
71046;SDS011;58703;48.978;8.982;2022-10-16T15:29:06;5.10;;;1.48;;
71046;SDS011;58703;48.978;8.982;2022-10-16T15:31:32;2.53;;;1.40;;
71046;SDS011;58703;48.978;8.982;2022-10-16T15:33:58;1.85;;;1.40;;
71046;SDS011;58703;48.978;8.982;2022-10-16T15:36:29;6.55;;;1.70;;
71046;SDS011;58703;48.978;8.982;2022-10-16T15:38:59;2.30;;;1.63;;
71046;SDS011;58703;48.978;8.982;2022-10-16T15:41:25;5.53;;;2.20;;
71046;SDS011;58703;48.978;8.982;2022-10-16T15:43:51;5.70;;;1.60;;
71046;SDS011;58703;48.978;8.982;2022-10-16T15:46:18;3.72;;;1.30;;
71046;SDS011;58703;48.978;8.982;2022-10-16T15:48:45;2.28;;;1.20;;
71046;SDS011;58703;48.978;8.982;2022-10-16T15:51:12;3.80;;;1.10;;
71046;SDS011;58703;48.978;8.982;2022-10-16T15:53:37;1.97;;;1.03;;
71046;SDS011;58703;48.978;8.982;2022-10-16T15:56:06;3.70;;;0.90;;
71046;SDS011;58703;48.978;8.982;2022-10-16T15:58:33;4.82;;;1.17;;
71046;SDS011;58703;48.978;8.982;2022-10-16T16:00:59;3.63;;;1.25;;
71046;SDS011;58703;48.978;8.982;2022-10-16T16:03:28;2.80;;;1.00;;
71046;SDS011;58703;48.978;8.982;2022-10-16T16:05:55;4.50;;;1.73;;
71046;SDS011;58703;48.978;8.982;2022-10-16T16:08:21;2.78;;;1.27;;
71046;SDS011;58703;48.978;8.982;2022-10-16T16:10:58;7.40;;;1.73;;
71046;SDS011;58703;48.978;8.982;2022-10-16T16:13:26;4.75;;;1.65;;
71046;SDS011;58703;48.978;8.982;2022-10-16T16:15:53;5.30;;;1.63;;
71046;SDS011;58703;48.978;8.982;2022-10-16T16:18:19;2.65;;;1.33;;
71046;SDS011;58703;48.978;8.982;2022-10-16T16:20:45;1.77;;;0.90;;
71046;SDS011;58703;48.978;8.982;2022-10-16T16:23:10;5.53;;;1.30;;
71046;SDS011;58703;48.978;8.982;2022-10-16T16:25:37;4.27;;;1.80;;
71046;SDS011;58703;48.978;8.982;2022-10-16T16:28:02;7.53;;;1.90;;
71046;SDS011;58703;48.978;8.982;2022-10-16T16:30:28;3.07;;;1.30;;
71046;SDS011;58703;48.978;8.982;2022-10-16T16:32:55;3.13;;;1.67;;
71046;SDS011;58703;48.978;8.982;2022-10-16T16:35:22;4.93;;;2.35;;
71046;SDS011;58703;48.978;8.982;2022-10-16T16:37:48;5.43;;;3.80;;
71046;SDS011;58703;48.978;8.982;2022-10-16T16:40:15;5.75;;;2.45;;
71046;SDS011;58703;48.978;8.982;2022-10-16T16:42:42;4.20;;;2.40;;
71046;SDS011;58703;48.978;8.982;2022-10-16T16:45:08;4.43;;;2.80;;
71046;SDS011;58703;48.978;8.982;2022-10-16T16:47:35;10.20;;;2.77;;
71046;SDS011;58703;48.978;8.982;2022-10-16T16:50:01;4.30;;;2.35;;
71046;SDS011;58703;48.978;8.982;2022-10-16T16:52:30;7.70;;;2.20;;
71046;SDS011;58703;48.978;8.982;2022-10-16T16:54:57;3.83;;;2.53;;
71046;SDS011;58703;48.978;8.982;2022-10-16T16:57:24;8.50;;;5.25;;